createdAt,value
2023-02-12T00:01:15.914Z,24.70
2023-02-12T00:03:42.596Z,24.40
2023-02-12T00:06:10.279Z,24.63
2023-02-12T00:08:38.293Z,24.73
2023-02-12T00:11:14.799Z,24.83
2023-02-12T00:13:41.891Z,24.40
2023-02-12T00:16:11.942Z,24.53
2023-02-12T00:18:38.724Z,24.67
2023-02-12T00:21:08.689Z,26.17
2023-02-12T00:23:38.847Z,23.63
2023-02-12T00:26:14.108Z,23.03
2023-02-12T00:28:41.128Z,25.07
2023-02-12T00:31:13.984Z,24.83
2023-02-12T00:33:40.927Z,27.50
2023-02-12T00:36:09.464Z,25.70
2023-02-12T00:38:36.072Z,25.43
2023-02-12T00:41:02.707Z,23.97
2023-02-12T00:43:29.277Z,23.83
2023-02-12T00:45:56.304Z,23.03
2023-02-12T00:48:23.180Z,24.77
2023-02-12T00:50:50.823Z,22.80
2023-02-12T00:53:17.797Z,26.10
2023-02-12T00:55:44.361Z,25.03
2023-02-12T00:58:11.411Z,25.23
2023-02-12T01:00:38.814Z,24.37
2023-02-12T01:03:05.620Z,25.30
2023-02-12T01:05:32.566Z,24.20
2023-02-12T01:07:59.467Z,26.50
2023-02-12T01:10:26.746Z,25.77
2023-02-12T01:12:53.356Z,26.23
2023-02-12T01:15:20.362Z,26.17
2023-02-12T01:17:47.456Z,26.30
2023-02-12T01:20:17.619Z,24.57
2023-02-12T01:22:44.964Z,24.47
2023-02-12T01:25:12.149Z,25.73
2023-02-12T01:27:39.043Z,25.30
2023-02-12T01:30:07.500Z,25.20
2023-02-12T01:32:34.751Z,25.87
2023-02-12T01:35:01.745Z,26.60
2023-02-12T01:37:28.319Z,26.43
2023-02-12T01:39:54.937Z,26.20
2023-02-12T01:42:21.572Z,26.10
2023-02-12T01:45:30.447Z,25.80
2023-02-12T01:48:00.386Z,26.37
2023-02-12T01:50:27.005Z,25.57
2023-02-12T01:52:56.548Z,25.67
2023-02-12T01:55:23.462Z,25.23
2023-02-12T01:57:50.614Z,25.23
2023-02-12T02:00:22.352Z,26.77
2023-02-12T02:02:53.012Z,24.83
2023-02-12T02:05:31.845Z,27.00
2023-02-12T02:07:59.054Z,25.63
2023-02-12T02:10:25.600Z,25.37
2023-02-12T02:13:11.012Z,26.67
2023-02-12T02:15:39.755Z,25.97
2023-02-12T02:18:12.553Z,25.80
2023-02-12T02:20:51.448Z,24.90
2023-02-12T02:23:52.043Z,25.87
2023-02-12T02:26:46.803Z,25.27
2023-02-12T02:29:31.862Z,24.83
2023-02-12T02:32:18.745Z,24.90
2023-02-12T02:34:53.650Z,24.20
2023-02-12T02:37:29.905Z,24.27
2023-02-12T02:40:00.447Z,25.23
2023-02-12T02:43:03.035Z,24.87
2023-02-12T02:45:38.219Z,24.27
2023-02-12T02:48:26.922Z,24.17
2023-02-12T02:50:59.565Z,24.53
2023-02-12T02:53:33.530Z,25.87
2023-02-12T02:56:03.338Z,26.13
2023-02-12T02:58:41.031Z,24.13
2023-02-12T03:01:19.187Z,26.23
2023-02-12T03:03:59.663Z,25.63
2023-02-12T03:06:34.607Z,26.33
2023-02-12T03:09:09.554Z,25.20
2023-02-12T03:11:36.175Z,26.53
2023-02-12T03:14:36.728Z,22.83
2023-02-12T03:17:23.539Z,24.87
2023-02-12T03:20:38.873Z,26.67
2023-02-12T03:23:15.175Z,26.30
2023-02-12T03:25:57.078Z,24.43
2023-02-12T03:28:33.453Z,24.07
2023-02-12T03:31:16.494Z,25.10
2023-02-12T03:34:21.029Z,24.93
2023-02-12T03:37:00.943Z,27.40
2023-02-12T03:39:56.759Z,23.90
2023-02-12T03:42:38.596Z,24.33
2023-02-12T03:45:24.072Z,24.93
2023-02-12T03:48:08.744Z,24.43
2023-02-12T03:51:03.822Z,23.70
2023-02-12T03:53:32.248Z,22.67
2023-02-12T03:56:09.755Z,24.70
2023-02-12T03:58:38.623Z,24.50
2023-02-12T04:01:05.888Z,24.50
2023-02-12T04:03:33.805Z,23.80
2023-02-12T04:06:00.435Z,23.77
2023-02-12T04:08:28.204Z,23.03
2023-02-12T04:11:27.166Z,23.23
2023-02-12T04:14:14.982Z,23.70
2023-02-12T04:16:46.164Z,27.45
2023-02-12T04:19:20.305Z,26.53
2023-02-12T04:22:14.351Z,26.40
2023-02-12T04:24:55.462Z,25.17
2023-02-12T04:27:34.352Z,26.13
2023-02-12T04:30:24.984Z,25.87
2023-02-12T04:33:00.687Z,26.33
2023-02-12T04:35:31.482Z,26.73
2023-02-12T04:38:09.927Z,25.93
2023-02-12T04:40:40.122Z,27.03
2023-02-12T04:43:06.800Z,28.07
2023-02-12T04:45:35.631Z,27.87
2023-02-12T04:48:03.047Z,26.83
2023-02-12T04:50:39.665Z,31.00
2023-02-12T04:53:06.531Z,29.40
2023-02-12T04:55:33.147Z,27.67
2023-02-12T04:57:59.733Z,28.40
2023-02-12T05:00:26.866Z,28.73
2023-02-12T05:02:53.518Z,28.30
2023-02-12T05:05:20.334Z,27.73
2023-02-12T05:07:46.894Z,27.37
2023-02-12T05:10:13.522Z,28.87
2023-02-12T05:12:40.157Z,27.17
2023-02-12T05:15:07.163Z,28.10
2023-02-12T05:17:33.760Z,29.90
2023-02-12T05:20:00.325Z,29.17
2023-02-12T05:22:26.943Z,28.57
2023-02-12T05:24:53.534Z,28.80
2023-02-12T05:27:20.098Z,28.07
2023-02-12T05:29:46.636Z,30.77
2023-02-12T05:32:13.295Z,29.33
2023-02-12T05:34:40.088Z,28.70
2023-02-12T05:37:06.685Z,29.10
2023-02-12T05:39:33.249Z,30.67
2023-02-12T05:41:59.800Z,28.90
2023-02-12T05:44:26.389Z,29.37
2023-02-12T05:46:52.927Z,28.63
2023-02-12T05:49:19.807Z,28.83
2023-02-12T05:51:46.372Z,29.63
2023-02-12T05:54:13.044Z,29.63
2023-02-12T05:56:46.177Z,29.17
2023-02-12T05:59:16.918Z,29.40
2023-02-12T06:01:44.821Z,29.10
2023-02-12T06:04:17.211Z,28.93
2023-02-12T06:06:44.695Z,29.80
2023-02-12T06:09:13.353Z,29.43
2023-02-12T06:11:40.531Z,30.20
2023-02-12T06:14:09.338Z,28.23
2023-02-12T06:16:36.051Z,29.37
2023-02-12T06:19:05.390Z,30.80
2023-02-12T06:21:33.375Z,31.00
2023-02-12T06:24:00.378Z,28.60
2023-02-12T06:26:27.590Z,30.90
2023-02-12T06:28:54.687Z,28.77
2023-02-12T06:31:30.595Z,31.13
2023-02-12T06:34:00.117Z,30.83
2023-02-12T06:36:26.750Z,29.07
2023-02-12T06:38:53.469Z,29.30
2023-02-12T06:41:20.796Z,28.77
2023-02-12T06:43:47.700Z,28.50
2023-02-12T06:46:14.924Z,29.00
2023-02-12T06:48:41.865Z,28.73
2023-02-12T06:51:10.033Z,29.00
2023-02-12T06:53:36.892Z,29.80
2023-02-12T06:56:11.269Z,29.73
2023-02-12T06:58:39.325Z,27.90
2023-02-12T07:01:18.029Z,28.70
2023-02-12T07:03:48.840Z,28.23
2023-02-12T07:06:15.560Z,28.90
2023-02-12T07:08:42.177Z,28.00
2023-02-12T07:11:09.259Z,29.13
2023-02-12T07:13:36.032Z,28.83
2023-02-12T07:16:14.761Z,27.17
2023-02-12T07:18:42.938Z,28.43
2023-02-12T07:21:11.158Z,27.30
2023-02-12T07:23:38.088Z,27.13
2023-02-12T07:26:11.305Z,27.70
2023-02-12T07:28:38.242Z,26.97
2023-02-12T07:31:12.830Z,27.50
2023-02-12T07:33:40.909Z,28.23
2023-02-12T07:36:11.255Z,29.27
2023-02-12T07:38:39.654Z,27.73
2023-02-12T07:41:16.653Z,29.23
2023-02-12T07:43:45.656Z,27.20
2023-02-12T07:46:17.041Z,27.90
2023-02-12T07:48:44.700Z,27.93
2023-02-12T07:51:15.057Z,27.80
2023-02-12T07:53:42.188Z,27.57
2023-02-12T07:56:15.424Z,28.90
2023-02-12T07:58:45.052Z,27.50
2023-02-12T08:01:12.393Z,28.53
2023-02-12T08:03:39.242Z,27.40
2023-02-12T08:06:10.959Z,27.50
2023-02-12T08:08:38.841Z,28.07
2023-02-12T08:11:07.729Z,28.23
2023-02-12T08:13:35.781Z,26.87
2023-02-12T08:16:04.615Z,28.23
2023-02-12T08:18:35.032Z,28.90
2023-02-12T08:21:06.371Z,28.60
2023-02-12T08:23:34.023Z,27.07
2023-02-12T08:26:09.228Z,27.47
2023-02-12T08:28:36.891Z,28.67
2023-02-12T08:31:06.414Z,29.30
2023-02-12T08:33:33.103Z,28.57
2023-02-12T08:36:09.528Z,29.17
2023-02-12T08:38:36.418Z,28.33
2023-02-12T08:41:09.469Z,29.37
2023-02-12T08:43:36.733Z,29.47
2023-02-12T08:46:09.272Z,29.60
2023-02-12T08:48:36.001Z,30.83
2023-02-12T08:51:09.107Z,30.47
2023-02-12T08:53:37.103Z,30.00
2023-02-12T08:56:04.207Z,30.30
2023-02-12T08:58:31.041Z,30.03
2023-02-12T09:00:57.630Z,31.23
2023-02-12T09:03:24.860Z,33.03
2023-02-12T09:05:51.618Z,32.63
2023-02-12T09:08:18.356Z,31.70
2023-02-12T09:10:45.666Z,32.03
2023-02-12T09:13:14.031Z,34.83
2023-02-12T09:15:44.950Z,34.10
2023-02-12T09:18:13.545Z,31.53
2023-02-12T09:20:42.649Z,31.43
2023-02-12T09:23:14.201Z,32.30
2023-02-12T09:25:45.078Z,32.00
2023-02-12T09:28:13.937Z,31.63
2023-02-12T09:30:41.201Z,32.27
2023-02-12T09:33:09.846Z,30.60
2023-02-12T09:35:37.590Z,30.97
2023-02-12T09:38:05.589Z,28.73
2023-02-12T09:41:07.163Z,29.60
2023-02-12T09:43:52.841Z,30.10
2023-02-12T09:46:24.082Z,28.53
2023-02-12T09:49:23.540Z,29.03
2023-02-12T09:51:53.897Z,28.87
2023-02-12T09:54:29.104Z,29.47
2023-02-12T09:57:00.090Z,28.00
2023-02-12T09:59:33.483Z,27.33
2023-02-12T10:02:00.188Z,26.70
2023-02-12T10:04:28.782Z,24.83
2023-02-12T10:07:07.928Z,24.20
2023-02-12T10:09:58.520Z,22.10
2023-02-12T10:12:54.207Z,23.00
2023-02-12T10:15:45.465Z,23.27
2023-02-12T10:18:37.482Z,22.37
2023-02-12T10:21:10.769Z,23.97
2023-02-12T10:24:19.990Z,24.27
2023-02-12T10:26:52.177Z,24.27
2023-02-12T10:29:24.894Z,23.27
2023-02-12T10:32:07.833Z,21.63
2023-02-12T10:34:36.920Z,22.37
2023-02-12T10:37:32.544Z,19.80
2023-02-12T10:40:06.005Z,17.97
2023-02-12T10:42:40.829Z,18.50
2023-02-12T10:45:14.233Z,17.17
2023-02-12T10:47:40.835Z,17.83
2023-02-12T10:50:24.017Z,17.90
2023-02-12T10:52:55.929Z,17.90
2023-02-12T10:55:31.317Z,17.00
2023-02-12T10:57:59.443Z,17.63
2023-02-12T11:00:35.892Z,18.30
2023-02-12T11:03:21.322Z,19.50
2023-02-12T11:05:48.297Z,18.33
2023-02-12T11:08:33.727Z,17.23
2023-02-12T11:11:19.025Z,16.67
2023-02-12T11:14:16.197Z,17.57
2023-02-12T11:17:02.538Z,14.40
2023-02-12T11:19:31.293Z,16.93
2023-02-12T11:22:18.881Z,17.90
2023-02-12T11:24:46.983Z,18.33
2023-02-12T11:27:21.979Z,17.60
2023-02-12T11:30:07.416Z,20.73
2023-02-12T11:32:34.051Z,15.70
2023-02-12T11:35:23.613Z,13.63
2023-02-12T11:37:51.860Z,15.27
2023-02-12T11:40:26.000Z,8.57
2023-02-12T11:43:02.374Z,7.43
2023-02-12T11:45:46.273Z,8.50
2023-02-12T11:48:21.317Z,7.97
2023-02-12T11:50:50.941Z,8.53
2023-02-12T11:53:42.112Z,7.97
2023-02-12T11:56:12.010Z,7.37
2023-02-12T11:58:39.179Z,7.37
2023-02-12T12:01:30.043Z,7.47
2023-02-12T12:04:13.987Z,7.47
2023-02-12T12:06:48.801Z,7.57
2023-02-12T12:09:26.585Z,7.47
2023-02-12T12:12:21.927Z,6.67
2023-02-12T12:15:16.329Z,6.27
2023-02-12T12:18:19.002Z,7.13
2023-02-12T12:20:56.858Z,7.37
2023-02-12T12:23:35.179Z,7.00
2023-02-12T12:26:10.656Z,7.50
2023-02-12T12:28:47.779Z,7.47
2023-02-12T12:31:19.398Z,7.03
2023-02-12T12:34:07.350Z,7.30
2023-02-12T12:37:04.752Z,7.53
2023-02-12T12:39:45.875Z,7.37
2023-02-12T12:42:37.229Z,7.23
2023-02-12T12:45:18.971Z,7.70
2023-02-12T12:48:09.250Z,7.37
2023-02-12T12:51:00.525Z,7.30
2023-02-12T12:53:36.788Z,7.50
2023-02-12T12:56:27.563Z,7.57
2023-02-12T12:59:32.118Z,7.82
2023-02-12T13:02:38.223Z,6.80
2023-02-12T13:05:34.203Z,7.07
2023-02-12T13:08:15.833Z,7.33
2023-02-12T13:11:02.275Z,6.60
2023-02-12T13:13:39.672Z,7.27
2023-02-12T13:16:23.064Z,7.70
2023-02-12T13:19:06.536Z,6.80
2023-02-12T13:21:54.801Z,6.40
2023-02-12T13:24:37.126Z,6.00
2023-02-12T13:27:19.884Z,5.90
2023-02-12T13:30:19.287Z,5.67
2023-02-12T13:32:57.754Z,6.43
2023-02-12T13:35:28.517Z,6.63
2023-02-12T13:37:56.382Z,6.93
2023-02-12T13:40:26.815Z,6.27
2023-02-12T13:43:36.282Z,6.67
2023-02-12T13:46:33.259Z,6.20
2023-02-12T13:49:32.989Z,6.57
2023-02-12T13:52:14.284Z,5.63
2023-02-12T13:55:00.545Z,6.13
2023-02-12T13:57:28.460Z,5.40
2023-02-12T13:59:58.088Z,6.10
2023-02-12T14:02:36.230Z,6.47
2023-02-12T14:05:15.673Z,6.13
2023-02-12T14:07:51.704Z,6.50
2023-02-12T14:10:40.223Z,5.73
2023-02-12T14:13:22.799Z,5.17
2023-02-12T14:15:55.509Z,5.30
2023-02-12T14:18:33.084Z,5.50
2023-02-12T14:21:22.196Z,5.70
2023-02-12T14:23:51.014Z,4.30
2023-02-12T14:26:23.393Z,3.90
2023-02-12T14:29:02.971Z,4.47
2023-02-12T14:31:36.671Z,3.90
2023-02-12T14:34:06.402Z,4.13
2023-02-12T14:36:32.937Z,4.20
2023-02-12T14:39:01.458Z,4.37
2023-02-12T14:41:38.748Z,4.10
2023-02-12T14:44:17.537Z,3.97
2023-02-12T14:46:54.509Z,3.97
2023-02-12T14:49:30.039Z,3.40
2023-02-12T14:52:07.819Z,4.13
2023-02-12T14:54:42.254Z,3.50
2023-02-12T14:57:33.202Z,3.10
2023-02-12T15:00:20.569Z,3.43
2023-02-12T15:03:18.350Z,3.07
2023-02-12T15:06:02.725Z,3.13
2023-02-12T15:08:41.393Z,3.03
2023-02-12T15:11:17.064Z,2.97
2023-02-12T15:13:58.720Z,2.57
2023-02-12T15:16:34.498Z,2.90
2023-02-12T15:19:28.345Z,2.70
2023-02-12T15:21:55.054Z,2.50
2023-02-12T15:24:25.787Z,3.10
2023-02-12T15:26:58.269Z,2.93
2023-02-12T15:29:29.854Z,2.80
2023-02-12T15:32:02.128Z,2.60
2023-02-12T15:34:32.077Z,2.73
2023-02-12T15:37:01.479Z,2.53
2023-02-12T15:39:32.920Z,3.03
2023-02-12T15:41:59.481Z,2.67
2023-02-12T15:44:31.525Z,3.13
2023-02-12T15:47:13.792Z,2.77
2023-02-12T15:49:41.958Z,2.83
2023-02-12T15:52:16.536Z,2.67
2023-02-12T15:54:45.730Z,3.20
2023-02-12T15:57:18.622Z,2.97
2023-02-12T15:59:53.711Z,2.95
2023-02-12T16:02:25.524Z,2.80
2023-02-12T16:04:52.303Z,3.10
2023-02-12T16:07:19.917Z,3.30
2023-02-12T16:09:48.693Z,2.80
2023-02-12T16:12:20.179Z,3.03
2023-02-12T16:14:59.909Z,3.17
2023-02-12T16:17:29.645Z,3.03
2023-02-12T16:20:02.876Z,2.90
2023-02-12T16:22:41.407Z,3.20
2023-02-12T16:25:30.189Z,3.53
2023-02-12T16:28:05.023Z,4.27
2023-02-12T16:30:34.552Z,3.53
2023-02-12T16:33:02.249Z,3.13
2023-02-12T16:35:31.407Z,4.07
2023-02-12T16:38:02.015Z,4.93
2023-02-12T16:40:34.460Z,3.90
2023-02-12T16:43:22.770Z,4.03
2023-02-12T16:45:49.990Z,3.50
2023-02-12T16:48:26.541Z,2.87
2023-02-12T16:50:59.490Z,2.97
2023-02-12T16:53:33.330Z,3.40
2023-02-12T16:56:01.179Z,3.63
2023-02-12T16:58:28.587Z,3.20
2023-02-12T17:00:57.459Z,4.00
2023-02-12T17:03:24.958Z,3.97
2023-02-12T17:05:52.389Z,4.17
2023-02-12T17:08:22.505Z,4.33
2023-02-12T17:10:49.842Z,5.22
2023-02-12T17:13:17.657Z,5.13
2023-02-12T17:15:55.374Z,4.43
2023-02-12T17:18:23.130Z,4.30
2023-02-12T17:20:54.645Z,4.60
2023-02-12T17:23:21.537Z,5.37
2023-02-12T17:25:48.249Z,5.20
2023-02-12T17:28:15.052Z,5.03
2023-02-12T17:30:42.041Z,5.23
2023-02-12T17:33:09.085Z,5.37
2023-02-12T17:35:37.869Z,5.73
2023-02-12T17:38:04.905Z,5.93
2023-02-12T17:40:31.554Z,6.27
2023-02-12T17:42:59.003Z,6.43
2023-02-12T17:45:25.567Z,6.37
2023-02-12T17:47:52.163Z,6.97
2023-02-12T17:50:18.838Z,6.67
2023-02-12T17:52:46.170Z,7.10
2023-02-12T17:55:14.208Z,7.33
2023-02-12T17:57:41.185Z,7.03
2023-02-12T18:00:11.399Z,6.97
2023-02-12T18:02:38.649Z,7.00
2023-02-12T18:05:05.693Z,6.43
2023-02-12T18:07:33.900Z,7.20
2023-02-12T18:10:00.649Z,6.53
2023-02-12T18:12:27.226Z,7.03
2023-02-12T18:14:58.794Z,7.50
2023-02-12T18:17:25.950Z,7.47
2023-02-12T18:19:53.212Z,8.17
2023-02-12T18:22:20.858Z,8.20
2023-02-12T18:24:47.620Z,8.30
2023-02-12T18:27:15.340Z,8.40
2023-02-12T18:29:42.173Z,9.10
2023-02-12T18:32:08.765Z,9.93
2023-02-12T18:34:35.413Z,8.73
2023-02-12T18:37:01.957Z,9.30
2023-02-12T18:39:29.205Z,9.37
2023-02-12T18:41:55.839Z,9.60
2023-02-12T18:44:22.824Z,9.57
2023-02-12T18:46:49.451Z,10.47
2023-02-12T18:49:16.585Z,9.27
2023-02-12T18:51:43.434Z,10.40
2023-02-12T18:54:14.216Z,11.88
2023-02-12T18:56:44.105Z,11.07
2023-02-12T18:59:13.639Z,11.77
2023-02-12T19:01:40.317Z,10.37
2023-02-12T19:04:09.872Z,11.10
2023-02-12T19:06:42.248Z,13.40
2023-02-12T19:09:09.498Z,11.10
2023-02-12T19:11:36.347Z,11.87
2023-02-12T19:14:03.495Z,10.57
2023-02-12T19:16:30.473Z,10.20
2023-02-12T19:19:02.664Z,11.47
2023-02-12T19:21:30.014Z,10.33
2023-02-12T19:23:59.340Z,9.13
2023-02-12T19:26:28.795Z,9.37
2023-02-12T19:28:56.466Z,10.57
2023-02-12T19:31:26.317Z,11.00
2023-02-12T19:33:59.971Z,18.23
2023-02-12T19:36:29.025Z,12.70
2023-02-12T19:38:55.719Z,12.67
2023-02-12T19:41:24.725Z,11.53
2023-02-12T19:43:55.888Z,13.43
2023-02-12T19:46:22.573Z,17.67
2023-02-12T19:48:49.717Z,16.13
2023-02-12T19:51:21.055Z,18.30
2023-02-12T19:53:48.624Z,18.07
2023-02-12T19:56:16.074Z,16.03
2023-02-12T19:58:43.613Z,15.80
2023-02-12T20:01:16.839Z,13.97
2023-02-12T20:03:44.653Z,13.97
2023-02-12T20:06:14.983Z,13.67
2023-02-12T20:08:43.082Z,12.80
2023-02-12T20:11:13.722Z,12.87
2023-02-12T20:13:41.244Z,11.63
2023-02-12T20:16:15.959Z,15.00
2023-02-12T20:18:44.077Z,15.47
2023-02-12T20:21:13.094Z,20.07
2023-02-12T20:23:40.067Z,22.33
2023-02-12T20:26:09.108Z,38.27
2023-02-12T20:28:36.860Z,17.63
2023-02-12T20:31:18.994Z,17.27
2023-02-12T20:33:46.179Z,16.27
2023-02-12T20:36:13.889Z,15.13
2023-02-12T20:38:44.700Z,14.83
2023-02-12T20:41:11.970Z,14.20
2023-02-12T20:43:39.022Z,15.10
2023-02-12T20:46:06.877Z,15.73
2023-02-12T20:48:33.504Z,16.37
2023-02-12T20:51:05.679Z,16.97
2023-02-12T20:53:32.940Z,18.67
2023-02-12T20:56:05.346Z,17.37
2023-02-12T20:58:32.709Z,16.03
2023-02-12T21:01:23.958Z,15.63
2023-02-12T21:03:53.030Z,15.10
2023-02-12T21:06:21.300Z,14.97
2023-02-12T21:08:48.326Z,15.23
2023-02-12T21:11:18.209Z,15.07
2023-02-12T21:13:58.380Z,14.67
2023-02-12T21:16:32.558Z,14.33
2023-02-12T21:18:59.771Z,19.77
2023-02-12T21:21:31.122Z,17.07
2023-02-12T21:23:59.771Z,16.30
2023-02-12T21:26:29.019Z,15.50
2023-02-12T21:28:57.793Z,18.60
2023-02-12T21:31:28.230Z,23.00
2023-02-12T21:33:56.592Z,17.80
2023-02-12T21:36:29.197Z,17.03
2023-02-12T21:38:57.193Z,16.43
2023-02-12T21:41:25.055Z,19.33
2023-02-12T21:43:57.615Z,17.03
2023-02-12T21:46:24.392Z,15.93
2023-02-12T21:48:51.299Z,16.93
2023-02-12T21:51:30.077Z,15.87
2023-02-12T21:53:59.690Z,15.80
2023-02-12T21:56:27.324Z,17.33
2023-02-12T21:58:54.923Z,15.17
2023-02-12T22:01:29.878Z,16.40
2023-02-12T22:03:56.485Z,15.63
2023-02-12T22:06:24.646Z,16.33
2023-02-12T22:08:55.376Z,17.00
2023-02-12T22:11:22.790Z,16.90
2023-02-12T22:13:49.871Z,16.50
2023-02-12T22:16:26.666Z,15.50
2023-02-12T22:18:55.541Z,15.50
2023-02-12T22:21:23.873Z,16.33
2023-02-12T22:23:52.889Z,17.07
2023-02-12T22:26:23.181Z,16.37
2023-02-12T22:28:55.877Z,16.13
2023-02-12T22:31:25.866Z,17.37
2023-02-12T22:33:55.535Z,16.53
2023-02-12T22:36:24.957Z,16.93
2023-02-12T22:38:53.317Z,15.67
2023-02-12T22:41:20.692Z,17.47
2023-02-12T22:43:47.676Z,15.77
2023-02-12T22:46:15.659Z,17.37
2023-02-12T22:48:42.717Z,16.80
2023-02-12T22:51:17.604Z,17.43
2023-02-12T22:53:44.258Z,17.00
2023-02-12T22:56:11.153Z,17.83
2023-02-12T22:58:39.505Z,18.40
2023-02-12T23:01:13.523Z,19.00
2023-02-12T23:03:41.014Z,19.33
2023-02-12T23:06:11.644Z,18.63
2023-02-12T23:08:38.512Z,19.47
2023-02-12T23:11:07.192Z,20.73
2023-02-12T23:13:36.026Z,22.17
2023-02-12T23:16:03.098Z,22.13
2023-02-12T23:18:30.121Z,20.47
2023-02-12T23:20:57.070Z,21.13
2023-02-12T23:23:24.192Z,20.37
2023-02-12T23:25:50.873Z,19.70
2023-02-12T23:28:17.692Z,19.20
2023-02-12T23:30:44.407Z,22.70
2023-02-12T23:33:11.158Z,17.67
2023-02-12T23:35:38.457Z,17.47
2023-02-12T23:38:05.399Z,16.70
2023-02-12T23:40:33.437Z,16.80
2023-02-12T23:43:00.177Z,16.47
2023-02-12T23:45:28.032Z,16.07
2023-02-12T23:47:54.881Z,16.67
2023-02-12T23:50:22.218Z,16.83
2023-02-12T23:52:49.203Z,16.97
2023-02-12T23:55:16.296Z,16.93
2023-02-12T23:57:42.835Z,17.50
